createdAt,value
2018-01-15T00:00:49.523Z,87.41
2018-01-15T00:01:49.530Z,87.32
2018-01-15T00:02:49.539Z,87.32
2018-01-15T00:03:49.551Z,87.23
2018-01-15T00:04:49.560Z,87.79
2018-01-15T00:05:49.571Z,86.94
2018-01-15T00:06:49.578Z,87.60
2018-01-15T00:07:49.587Z,87.04
2018-01-15T00:08:49.599Z,87.41
2018-01-15T00:09:49.610Z,87.04
2018-01-15T00:10:49.618Z,87.70
2018-01-15T00:11:49.627Z,87.23
2018-01-15T00:12:49.638Z,87.13
2018-01-15T00:13:49.648Z,86.85
2018-01-15T00:14:49.657Z,87.88
2018-01-15T00:15:49.671Z,87.51
2018-01-15T00:16:49.677Z,87.70
2018-01-15T00:17:49.689Z,87.51
2018-01-15T00:18:49.701Z,87.23
2018-01-15T00:19:49.710Z,87.79
2018-01-15T00:20:49.719Z,87.79
2018-01-15T00:21:49.878Z,87.88
2018-01-15T00:22:49.735Z,87.60
2018-01-15T00:23:49.747Z,87.70
2018-01-15T00:24:49.778Z,87.32
2018-01-15T00:25:49.766Z,87.23
2018-01-15T00:26:49.777Z,87.70
2018-01-15T00:27:49.786Z,87.88
2018-01-15T00:28:49.796Z,88.17
2018-01-15T00:29:49.807Z,87.79
2018-01-15T00:30:49.817Z,88.07
2018-01-15T00:31:49.836Z,88.36
2018-01-15T00:32:49.848Z,87.70
2018-01-15T00:33:50.001Z,87.88
2018-01-15T00:34:49.858Z,88.17
2018-01-15T00:35:49.867Z,88.17
2018-01-15T00:36:49.879Z,87.70
2018-01-15T00:37:49.892Z,87.88
2018-01-15T00:38:49.899Z,87.98
2018-01-15T00:39:49.907Z,87.98
2018-01-15T00:40:49.916Z,88.45
2018-01-15T00:41:49.927Z,88.64
2018-01-15T00:42:49.934Z,88.55
2018-01-15T00:43:49.954Z,88.55
2018-01-15T00:44:50.763Z,89.21
2018-01-15T00:45:49.983Z,88.74
2018-01-15T00:46:49.976Z,88.83
2018-01-15T00:47:49.987Z,88.17
2018-01-15T00:48:49.995Z,88.74
2018-01-15T00:49:50.013Z,88.26
2018-01-15T00:50:50.015Z,88.64
2018-01-15T00:51:50.029Z,89.02
2018-01-15T00:52:50.044Z,89.02
2018-01-15T00:53:50.045Z,89.21
2018-01-15T00:54:50.059Z,88.83
2018-01-15T00:55:50.065Z,88.83
2018-01-15T00:56:50.076Z,88.74
2018-01-15T00:57:50.084Z,88.74
2018-01-15T00:58:50.246Z,88.45
2018-01-15T00:59:50.105Z,88.83
2018-01-15T01:00:50.140Z,88.55
2018-01-15T01:01:50.126Z,88.74
2018-01-15T01:02:50.135Z,89.50
2018-01-15T01:03:50.149Z,89.12
2018-01-15T01:04:50.154Z,89.12
2018-01-15T01:05:50.166Z,89.02
2018-01-15T01:06:50.176Z,89.31
2018-01-15T01:07:50.188Z,89.21
2018-01-15T01:08:50.200Z,89.21
2018-01-15T01:09:50.212Z,89.78
2018-01-15T01:10:50.309Z,89.69
2018-01-15T01:11:50.232Z,89.69
2018-01-15T01:12:50.241Z,90.44
2018-01-15T01:13:50.245Z,89.69
2018-01-15T01:14:50.512Z,89.69
2018-01-15T01:15:51.261Z,89.12
2018-01-15T01:16:50.276Z,89.02
2018-01-15T01:17:50.426Z,89.12
2018-01-15T01:19:50.860Z,89.59
2018-01-15T01:20:50.573Z,89.59
2018-01-15T01:21:50.327Z,90.16
2018-01-15T01:22:50.375Z,90.16
2018-01-15T01:23:50.355Z,89.69
2018-01-15T01:24:50.360Z,89.78
2018-01-15T01:25:50.370Z,89.87
2018-01-15T01:26:50.378Z,89.97
2018-01-15T01:27:50.392Z,90.16
2018-01-15T01:28:50.396Z,89.69
2018-01-15T01:29:50.410Z,90.44
2018-01-15T01:30:50.452Z,90.44
2018-01-15T01:31:50.439Z,89.78
2018-01-15T01:32:50.437Z,90.16
2018-01-15T01:33:50.449Z,89.78
2018-01-15T01:34:50.457Z,90.16
2018-01-15T01:35:50.538Z,90.53
2018-01-15T01:36:50.478Z,90.44
2018-01-15T01:37:50.500Z,90.25
2018-01-15T01:38:50.498Z,89.97
2018-01-15T01:39:50.511Z,90.25
2018-01-15T01:40:50.521Z,90.06
2018-01-15T01:41:50.531Z,90.16
2018-01-15T01:42:50.540Z,90.72
2018-01-15T01:43:50.548Z,90.72
2018-01-15T01:44:50.709Z,90.25
2018-01-15T01:45:50.570Z,89.97
2018-01-15T01:46:50.581Z,90.16
2018-01-15T01:47:50.590Z,90.25
2018-01-15T01:48:50.599Z,90.72
2018-01-15T01:49:50.615Z,90.63
2018-01-15T01:50:50.619Z,90.44
2018-01-15T01:51:50.630Z,90.53
2018-01-15T01:52:50.793Z,89.87
2018-01-15T01:53:50.665Z,89.87
2018-01-15T01:54:50.660Z,90.25
2018-01-15T01:55:50.671Z,90.63
2018-01-15T01:56:50.686Z,90.25
2018-01-15T01:57:50.692Z,90.16
2018-01-15T01:58:50.705Z,90.16
2018-01-15T01:59:50.711Z,90.06
2018-01-15T02:00:50.722Z,90.34
2018-01-15T02:01:50.733Z,90.63
2018-01-15T02:02:50.746Z,90.53
2018-01-15T02:03:50.757Z,90.63
2018-01-15T02:04:50.765Z,90.53
2018-01-15T02:05:50.773Z,90.44
2018-01-15T02:06:50.783Z,91.29
2018-01-15T02:07:50.843Z,90.82
2018-01-15T02:08:50.803Z,90.72
2018-01-15T02:09:50.823Z,90.16
2018-01-15T02:10:50.824Z,90.53
2018-01-15T02:11:50.832Z,90.63
2018-01-15T02:12:50.847Z,91.39
2018-01-15T02:13:50.855Z,90.72
2018-01-15T02:14:50.865Z,90.91
2018-01-15T02:15:50.883Z,90.72
2018-01-15T02:16:50.898Z,90.72
2018-01-15T02:17:50.903Z,90.63
2018-01-15T02:18:50.905Z,90.44
2018-01-15T02:19:50.919Z,90.72
2018-01-15T02:20:50.925Z,90.82
2018-01-15T02:21:50.968Z,90.82
2018-01-15T02:22:50.945Z,91.20
2018-01-15T02:23:50.959Z,90.53
2018-01-15T02:24:50.966Z,90.16
2018-01-15T02:25:50.975Z,90.25
2018-01-15T02:26:51.038Z,90.34
2018-01-15T02:27:51.004Z,89.87
2018-01-15T02:28:51.009Z,90.34
2018-01-15T02:29:51.021Z,90.25
2018-01-15T02:30:51.027Z,90.44
2018-01-15T02:31:51.038Z,89.97
2018-01-15T02:32:51.048Z,90.16
2018-01-15T02:33:51.066Z,90.16
2018-01-15T02:35:51.078Z,89.78
2018-01-15T02:36:51.092Z,90.25
2018-01-15T02:37:51.100Z,90.63
2018-01-15T02:38:51.109Z,90.72
2018-01-15T02:39:51.119Z,90.44
2018-01-15T02:40:51.130Z,90.34
2018-01-15T02:41:51.140Z,89.50
2018-01-15T02:42:51.152Z,89.78
2018-01-15T02:43:51.411Z,89.97
2018-01-15T02:44:51.170Z,89.78
2018-01-15T02:45:51.182Z,89.97
2018-01-15T02:46:51.191Z,89.78
2018-01-15T02:47:51.200Z,89.87
2018-01-15T02:48:51.212Z,90.16
2018-01-15T02:49:51.222Z,90.34
2018-01-15T02:50:51.238Z,90.25
2018-01-15T02:51:51.242Z,90.34
2018-01-15T02:52:51.258Z,90.16
2018-01-15T02:53:51.271Z,90.44
2018-01-15T02:54:51.275Z,90.06
2018-01-15T02:55:51.285Z,90.25
2018-01-15T02:56:51.296Z,90.06
2018-01-15T02:57:51.311Z,90.53
2018-01-15T02:58:51.316Z,90.16
2018-01-15T02:59:51.475Z,90.44
2018-01-15T03:00:51.340Z,90.44
2018-01-15T03:01:51.349Z,90.63
2018-01-15T03:02:51.354Z,90.53
2018-01-15T03:03:51.362Z,90.25
2018-01-15T03:04:51.379Z,90.44
2018-01-15T03:05:51.386Z,89.87
2018-01-15T03:06:51.397Z,90.44
2018-01-15T03:07:51.407Z,90.34
2018-01-15T03:08:51.419Z,89.87
2018-01-15T03:09:51.428Z,89.02
2018-01-15T03:10:51.435Z,89.59
2018-01-15T03:11:51.697Z,89.59
2018-01-15T03:12:51.460Z,89.97
2018-01-15T03:13:51.621Z,90.25
2018-01-15T03:14:51.481Z,89.87
2018-01-15T03:15:51.490Z,90.06
2018-01-15T03:16:51.502Z,89.40
2018-01-15T03:17:51.512Z,89.69
2018-01-15T03:18:51.519Z,90.06
2018-01-15T03:19:51.781Z,89.59
2018-01-15T03:20:51.544Z,89.69
2018-01-15T03:21:51.553Z,89.87
2018-01-15T03:22:51.570Z,89.59
2018-01-15T03:23:51.572Z,89.59
2018-01-15T03:24:51.584Z,89.87
2018-01-15T03:25:51.596Z,89.31
2018-01-15T03:26:51.608Z,90.44
2018-01-15T03:27:51.766Z,89.69
2018-01-15T03:28:51.626Z,89.69
2018-01-15T03:29:51.637Z,89.59
2018-01-15T03:30:51.648Z,89.02
2018-01-15T03:31:51.659Z,89.69
2018-01-15T03:32:51.668Z,89.40
2018-01-15T03:33:51.676Z,89.87
2018-01-15T03:34:51.684Z,89.35
2018-01-15T03:35:51.697Z,89.16
2018-01-15T03:36:51.707Z,89.12
2018-01-15T03:37:51.867Z,89.16
2018-01-15T03:38:51.728Z,89.35
2018-01-15T03:39:51.739Z,89.06
2018-01-15T03:40:51.748Z,89.06
2018-01-15T03:41:51.763Z,89.06
2018-01-15T03:42:51.767Z,89.06
2018-01-15T03:43:51.782Z,89.35
2018-01-15T03:44:51.789Z,89.35
2018-01-15T03:45:51.801Z,88.97
2018-01-15T03:46:51.808Z,89.25
2018-01-15T03:47:51.820Z,89.35
2018-01-15T03:48:51.981Z,88.68
2018-01-15T03:49:51.848Z,89.16
2018-01-15T03:50:51.854Z,89.44
2018-01-15T03:51:51.862Z,89.06
2018-01-15T03:52:51.873Z,90.01
2018-01-15T03:53:51.890Z,89.35
2018-01-15T03:54:51.894Z,89.25
2018-01-15T03:55:51.904Z,89.92
2018-01-15T03:56:51.912Z,90.11
2018-01-15T03:57:51.926Z,89.06
2018-01-15T03:58:51.934Z,89.63
2018-01-15T03:59:51.946Z,89.73
2018-01-15T04:00:51.955Z,89.63
2018-01-15T04:01:51.965Z,90.01
2018-01-15T04:02:51.973Z,90.01
2018-01-15T04:03:51.985Z,89.31
2018-01-15T04:04:51.993Z,89.73
2018-01-15T04:05:52.007Z,89.82
2018-01-15T04:06:52.017Z,89.92
2018-01-15T04:07:52.025Z,90.11
2018-01-15T04:08:52.035Z,89.92
2018-01-15T04:09:52.370Z,89.73
2018-01-15T04:10:52.056Z,89.73
2018-01-15T04:11:52.068Z,89.92
2018-01-15T04:12:52.076Z,89.63
2018-01-15T04:13:52.091Z,89.92
2018-01-15T04:14:52.097Z,89.92
2018-01-15T04:15:52.106Z,89.92
2018-01-15T04:16:52.117Z,89.44
2018-01-15T04:17:52.127Z,89.44
2018-01-15T04:18:52.137Z,89.44
2018-01-15T04:19:52.149Z,89.06
2018-01-15T04:20:52.163Z,89.06
2018-01-15T04:21:52.171Z,89.73
2018-01-15T04:22:52.178Z,89.82
2018-01-15T04:23:52.194Z,89.82
2018-01-15T04:24:52.200Z,89.92
2018-01-15T04:25:52.211Z,89.92
2018-01-15T04:26:52.221Z,89.73
2018-01-15T04:27:52.228Z,89.92
2018-01-15T04:28:52.239Z,89.92
2018-01-15T04:29:52.251Z,89.92
2018-01-15T04:30:52.259Z,89.92
2018-01-15T04:31:52.270Z,89.73
2018-01-15T04:32:52.282Z,89.63
2018-01-15T04:33:52.292Z,89.63
2018-01-15T04:34:52.451Z,89.82
2018-01-15T04:35:52.313Z,90.30
2018-01-15T04:36:52.321Z,89.63
2018-01-15T04:37:52.333Z,89.82
2018-01-15T04:38:52.342Z,89.82
2018-01-15T04:39:52.355Z,89.73
2018-01-15T04:40:52.366Z,89.92
2018-01-15T04:41:52.374Z,89.35
2018-01-15T04:42:52.391Z,89.54
2018-01-15T04:43:52.395Z,89.16
2018-01-15T04:44:52.403Z,89.25
2018-01-15T04:45:52.416Z,89.06
2018-01-15T04:46:52.428Z,89.63
2018-01-15T04:47:52.435Z,89.16
2018-01-15T04:48:52.445Z,89.35
2018-01-15T04:49:52.466Z,89.44
2018-01-15T04:50:52.467Z,89.73
2018-01-15T04:51:52.490Z,89.73
2018-01-15T04:52:52.486Z,89.54
2018-01-15T04:53:52.497Z,89.73
2018-01-15T04:54:52.505Z,89.92
2018-01-15T04:55:52.519Z,89.92
2018-01-15T04:56:52.529Z,89.92
2018-01-15T04:57:52.538Z,89.25
2018-01-15T04:58:52.548Z,89.73
2018-01-15T04:59:52.559Z,90.11
2018-01-15T05:00:52.567Z,89.06
2018-01-15T05:01:52.581Z,89.54
2018-01-15T05:02:52.590Z,90.01
2018-01-15T05:03:52.600Z,89.92
2018-01-15T05:04:52.611Z,89.25
2018-01-15T05:05:52.621Z,89.06
2018-01-15T05:06:52.631Z,89.73
2018-01-15T05:07:52.642Z,90.39
2018-01-15T05:08:52.702Z,90.01
2018-01-15T05:09:52.662Z,89.82
2018-01-15T05:10:52.673Z,90.30
2018-01-15T05:11:52.682Z,90.11
2018-01-15T05:12:52.693Z,90.30
2018-01-15T05:13:52.705Z,90.30
2018-01-15T05:14:52.713Z,90.39
2018-01-15T05:15:52.726Z,90.11
2018-01-15T05:16:52.742Z,90.11
2018-01-15T05:17:52.744Z,90.30
2018-01-15T05:18:52.759Z,89.82
2018-01-15T05:19:52.764Z,90.01
2018-01-15T05:20:52.777Z,90.48
2018-01-15T05:21:52.788Z,90.30
2018-01-15T05:22:52.798Z,90.01
2018-01-15T05:23:52.809Z,90.39
2018-01-15T05:24:52.821Z,90.48
2018-01-15T05:25:52.835Z,89.92
2018-01-15T05:26:52.838Z,90.39
2018-01-15T05:27:52.848Z,90.96
2018-01-15T05:28:52.861Z,90.20
2018-01-15T05:29:52.872Z,90.39
2018-01-15T05:30:52.884Z,90.11
2018-01-15T05:31:52.948Z,90.48
2018-01-15T05:32:52.902Z,90.30
2018-01-15T05:33:52.916Z,90.01
2018-01-15T05:34:52.924Z,90.01
2018-01-15T05:35:52.933Z,90.48
2018-01-15T05:36:52.947Z,89.92
2018-01-15T05:37:52.955Z,90.39
2018-01-15T05:38:52.972Z,90.20
2018-01-15T05:39:52.981Z,89.63
2018-01-15T05:40:52.989Z,89.92
2018-01-15T05:41:52.997Z,90.20
2018-01-15T05:42:53.008Z,90.20
2018-01-15T05:43:53.018Z,90.01
2018-01-15T05:44:53.022Z,90.01
2018-01-15T05:45:53.035Z,90.53
2018-01-15T05:46:53.044Z,90.20
2018-01-15T05:47:53.085Z,90.20
2018-01-15T05:48:53.063Z,90.20
2018-01-15T05:49:53.075Z,90.11
2018-01-15T05:50:53.085Z,90.30
2018-01-15T05:51:53.098Z,90.53
2018-01-15T05:52:53.105Z,90.15
2018-01-15T05:53:53.266Z,90.53
2018-01-15T05:54:53.129Z,90.25
2018-01-15T05:55:53.137Z,90.25
2018-01-15T05:56:53.154Z,89.87
2018-01-15T05:57:53.159Z,89.96
2018-01-15T05:58:53.167Z,89.39
2018-01-15T05:59:53.195Z,89.49
2018-01-15T06:00:53.188Z,89.87
2018-01-15T06:01:53.201Z,89.11
2018-01-15T06:02:53.211Z,89.20
2018-01-15T06:03:53.399Z,89.49
2018-01-15T06:04:53.232Z,89.30
2018-01-15T06:05:53.246Z,89.49
2018-01-15T06:06:53.253Z,89.30
2018-01-15T06:07:53.264Z,89.39
2018-01-15T06:08:53.285Z,89.20
2018-01-15T06:09:53.286Z,89.68
2018-01-15T06:10:53.297Z,89.87
2018-01-15T06:11:53.310Z,89.87
2018-01-15T06:12:53.317Z,89.77
2018-01-15T06:13:53.328Z,89.20
2018-01-15T06:14:53.341Z,89.68
2018-01-15T06:15:53.357Z,89.77
2018-01-15T06:16:53.361Z,89.68
2018-01-15T06:17:53.383Z,89.20
2018-01-15T06:18:53.385Z,89.68
2018-01-15T06:19:53.395Z,89.30
2018-01-15T06:20:53.404Z,89.58
2018-01-15T06:21:53.424Z,89.39
2018-01-15T06:22:53.425Z,89.11
2018-01-15T06:23:53.437Z,89.20
2018-01-15T06:24:53.463Z,89.30
2018-01-15T06:25:53.468Z,89.58
2018-01-15T06:26:53.477Z,88.73
2018-01-15T06:27:53.478Z,88.92
2018-01-15T06:28:53.492Z,89.11
2018-01-15T06:29:53.517Z,89.11
2018-01-15T06:30:53.510Z,88.92
2018-01-15T06:31:53.521Z,89.30
2018-01-15T06:32:53.538Z,89.39
2018-01-15T06:33:53.543Z,88.92
2018-01-15T06:34:53.554Z,88.64
2018-01-15T06:35:53.570Z,88.64
2018-01-15T06:36:53.577Z,88.26
2018-01-15T06:37:53.588Z,88.92
2018-01-15T06:38:53.602Z,88.64
2018-01-15T06:39:53.612Z,88.64
2018-01-15T06:40:53.626Z,88.64
2018-01-15T06:41:53.784Z,88.73
2018-01-15T06:42:53.641Z,88.92
2018-01-15T06:43:53.655Z,88.64
2018-01-15T06:44:53.663Z,88.64
2018-01-15T06:45:53.678Z,88.54
2018-01-15T06:46:53.686Z,88.64
2018-01-15T06:47:53.696Z,88.54
2018-01-15T06:48:53.856Z,88.82
2018-01-15T06:49:53.869Z,88.92
2018-01-15T06:50:53.728Z,88.92
2018-01-15T06:51:53.744Z,88.64
2018-01-15T06:52:53.752Z,88.73
2018-01-15T06:53:53.770Z,88.92
2018-01-15T06:54:53.777Z,88.54
2018-01-15T06:55:53.783Z,88.73
2018-01-15T06:56:53.796Z,88.78
2018-01-15T06:57:53.811Z,88.68
2018-01-15T06:58:53.817Z,88.68
2018-01-15T06:59:53.828Z,88.59
2018-01-15T07:00:53.838Z,88.49
2018-01-15T07:01:53.856Z,88.21
2018-01-15T07:02:53.884Z,89.15
2018-01-15T07:03:53.871Z,88.49
2018-01-15T07:04:53.881Z,88.68
2018-01-15T07:05:53.894Z,88.78
2018-01-15T07:06:53.909Z,88.87
2018-01-15T07:07:53.921Z,89.34
2018-01-15T07:08:53.952Z,88.96
2018-01-15T07:09:53.938Z,89.06
2018-01-15T07:10:53.947Z,88.30
2018-01-15T07:11:53.959Z,88.30
2018-01-15T07:12:54.070Z,88.30
2018-01-15T07:13:53.982Z,88.11
2018-01-15T07:14:53.991Z,87.92
2018-01-15T07:15:54.007Z,88.68
2018-01-15T07:16:54.018Z,88.96
2018-01-15T07:17:54.031Z,89.34
2018-01-15T07:18:54.036Z,89.72
2018-01-15T07:19:54.049Z,89.25
2018-01-15T07:20:54.208Z,89.44
2018-01-15T07:21:54.068Z,90.01
2018-01-15T07:22:54.080Z,89.63
2018-01-15T07:23:54.094Z,89.63
2018-01-15T07:24:54.103Z,89.72
2018-01-15T07:25:54.113Z,89.63
2018-01-15T07:26:54.125Z,89.82
2018-01-15T07:27:54.145Z,89.44
2018-01-15T07:28:54.146Z,89.44
2018-01-15T07:29:54.157Z,89.44
2018-01-15T07:30:54.172Z,89.15
2018-01-15T07:31:54.179Z,89.34
2018-01-15T07:32:54.189Z,89.53
2018-01-15T07:33:54.202Z,89.25
2018-01-15T07:34:54.210Z,89.44
2018-01-15T07:35:54.223Z,89.44
2018-01-15T07:36:54.234Z,89.34
2018-01-15T07:37:54.246Z,89.44
2018-01-15T07:38:54.266Z,89.25
2018-01-15T07:39:54.273Z,89.72
2018-01-15T07:40:54.279Z,89.72
2018-01-15T07:41:54.297Z,89.15
2018-01-15T07:42:54.301Z,90.01
2018-01-15T07:43:54.312Z,90.01
2018-01-15T07:44:54.322Z,90.01
2018-01-15T07:45:54.334Z,89.82
2018-01-15T07:46:54.346Z,89.82
2018-01-15T07:47:54.355Z,89.63
2018-01-15T07:48:54.367Z,89.82
2018-01-15T07:49:54.382Z,90.01
2018-01-15T07:50:54.400Z,90.01
2018-01-15T07:51:54.401Z,89.82
2018-01-15T07:52:54.412Z,89.82
2018-01-15T07:53:54.675Z,89.82
2018-01-15T07:54:54.440Z,90.39
2018-01-15T07:55:54.447Z,90.10
2018-01-15T07:56:54.463Z,89.91
2018-01-15T07:57:54.473Z,90.48
2018-01-15T07:58:54.504Z,90.58
2018-01-15T07:59:54.489Z,90.29
2018-01-15T08:00:54.500Z,90.01
2018-01-15T08:01:54.515Z,90.29
2018-01-15T08:02:54.522Z,90.48
2018-01-15T08:03:54.535Z,90.10
2018-01-15T08:04:54.546Z,90.10
2018-01-15T08:05:54.559Z,90.58
2018-01-15T08:06:54.583Z,90.48
2018-01-15T08:07:54.584Z,90.39
2018-01-15T08:08:54.590Z,90.10
2018-01-15T08:09:54.767Z,90.48
2018-01-15T08:10:54.611Z,90.20
2018-01-15T08:11:54.621Z,90.48
2018-01-15T08:12:54.633Z,90.20
2018-01-15T08:13:54.677Z,90.39
2018-01-15T08:14:54.655Z,90.67
2018-01-15T08:15:54.667Z,90.29
2018-01-15T08:16:54.681Z,90.20
2018-01-15T08:17:54.690Z,90.48
2018-01-15T08:18:54.988Z,90.29
2018-01-15T08:19:54.713Z,90.20
2018-01-15T08:20:54.725Z,90.10
2018-01-15T08:21:55.021Z,90.48
2018-01-15T08:22:54.747Z,90.58
2018-01-15T08:23:54.756Z,90.29
2018-01-15T08:24:54.768Z,90.29
2018-01-15T08:25:54.784Z,89.91
2018-01-15T08:26:54.794Z,90.39
2018-01-15T08:27:54.802Z,90.39
2018-01-15T08:28:54.816Z,90.10
2018-01-15T08:29:54.826Z,90.53
2018-01-15T08:31:54.890Z,89.96
2018-01-15T08:32:54.889Z,90.05
2018-01-15T08:33:54.882Z,89.77
2018-01-15T08:34:54.883Z,90.05
2018-01-15T08:35:54.894Z,89.58
2018-01-15T08:36:54.910Z,89.48
2018-01-15T08:37:54.918Z,90.24
2018-01-15T08:38:54.931Z,90.15
2018-01-15T08:39:54.943Z,89.58
2018-01-15T08:40:54.964Z,89.39
2018-01-15T08:41:54.975Z,89.86
2018-01-15T08:42:54.976Z,90.15
2018-01-15T08:43:54.989Z,90.05
2018-01-15T08:44:55.097Z,90.05
2018-01-15T08:45:55.013Z,90.05
2018-01-15T08:46:55.017Z,90.24
2018-01-15T08:47:55.032Z,90.15
2018-01-15T08:48:55.058Z,89.39
2018-01-15T08:49:55.054Z,89.67
2018-01-15T08:50:55.066Z,89.77
2018-01-15T08:51:55.080Z,89.67
2018-01-15T08:52:55.088Z,89.39
2018-01-15T08:53:55.101Z,89.48
2018-01-15T08:54:55.263Z,89.48
2018-01-15T08:55:55.122Z,89.48
2018-01-15T08:56:55.135Z,89.20
2018-01-15T08:57:55.270Z,89.48
2018-01-15T08:58:55.166Z,89.39
2018-01-15T08:59:55.176Z,89.29
2018-01-15T09:00:55.213Z,89.39
2018-01-15T09:01:55.191Z,89.20
2018-01-15T09:02:55.204Z,89.29
2018-01-15T09:03:55.216Z,89.11
2018-01-15T09:04:55.245Z,88.73
2018-01-15T09:05:55.270Z,88.82
2018-01-15T09:06:55.243Z,88.54
2018-01-15T09:07:55.323Z,87.97
2018-01-15T09:08:55.269Z,88.54
2018-01-15T09:09:55.455Z,88.01
2018-01-15T09:10:55.304Z,88.10
2018-01-15T09:11:55.309Z,88.48
2018-01-15T09:12:55.465Z,88.39
2018-01-15T09:13:55.328Z,88.20
2018-01-15T09:14:55.403Z,88.58
2018-01-15T09:15:55.350Z,88.39
2018-01-15T09:16:55.512Z,88.10
2018-01-15T09:17:55.385Z,88.20
2018-01-15T09:18:55.388Z,88.10
2018-01-15T09:19:55.397Z,88.01
2018-01-15T09:20:55.559Z,88.01
2018-01-15T09:21:55.481Z,87.82
2018-01-15T09:22:55.432Z,88.20
2018-01-15T09:23:55.456Z,88.29
2018-01-15T09:24:55.459Z,88.20
2018-01-15T09:25:55.467Z,87.82
2018-01-15T09:26:55.482Z,87.54
2018-01-15T09:27:55.489Z,87.73
2018-01-15T09:28:55.503Z,87.35
2018-01-15T09:29:55.515Z,87.82
2018-01-15T09:30:55.531Z,87.73
2018-01-15T09:31:55.541Z,87.63
2018-01-15T09:32:55.550Z,87.45
2018-01-15T09:33:55.578Z,87.54
2018-01-15T09:34:55.590Z,87.63
2018-01-15T09:35:55.602Z,86.97
2018-01-15T09:36:55.597Z,86.97
2018-01-15T09:37:55.608Z,87.54
2018-01-15T09:38:55.621Z,87.25
2018-01-15T09:40:55.646Z,87.54
2018-01-15T09:41:55.663Z,87.82
2018-01-15T09:42:55.669Z,87.16
2018-01-15T09:43:55.696Z,87.35
2018-01-15T09:44:55.702Z,87.25
2018-01-15T09:45:55.706Z,87.35
2018-01-15T09:46:55.722Z,87.25
2018-01-15T09:47:55.730Z,87.16
2018-01-15T09:48:55.754Z,86.78
2018-01-15T09:49:55.756Z,87.45
2018-01-15T09:50:55.803Z,86.97
2018-01-15T09:51:55.787Z,86.97
2018-01-15T09:52:55.792Z,87.63
2018-01-15T09:53:55.803Z,86.82
2018-01-15T09:54:55.816Z,86.97
2018-01-15T09:55:55.831Z,87.11
2018-01-15T09:56:55.840Z,87.49
2018-01-15T09:57:55.850Z,86.82
2018-01-15T09:58:55.866Z,86.72
2018-01-15T09:59:55.893Z,86.82
2018-01-15T10:00:55.889Z,86.82
2018-01-15T10:01:55.902Z,86.91
2018-01-15T10:02:55.916Z,87.11
2018-01-15T10:03:55.925Z,86.91
2018-01-15T10:04:55.936Z,86.72
2018-01-15T10:05:55.951Z,86.54
2018-01-15T10:06:55.971Z,86.63
2018-01-15T10:07:55.973Z,86.63
2018-01-15T10:08:55.987Z,86.82
2018-01-15T10:09:56.033Z,86.44
2018-01-15T10:10:56.126Z,86.07
2018-01-15T10:11:56.031Z,86.07
2018-01-15T10:12:56.038Z,86.25
2018-01-15T10:13:56.049Z,85.68
2018-01-15T10:14:56.066Z,86.07
2018-01-15T10:15:56.083Z,85.97
2018-01-15T10:16:56.086Z,85.78
2018-01-15T10:17:56.117Z,85.87
2018-01-15T10:18:56.138Z,85.68
2018-01-15T10:19:56.121Z,85.87
2018-01-15T10:20:56.135Z,85.87
2018-01-15T10:21:56.151Z,86.07
2018-01-15T10:22:56.161Z,86.25
2018-01-15T10:23:56.184Z,85.97
2018-01-15T10:24:56.183Z,86.16
2018-01-15T10:25:56.197Z,85.78
2018-01-15T10:26:56.212Z,85.78
2018-01-15T10:27:56.222Z,86.07
2018-01-15T10:28:56.242Z,85.78
2018-01-15T10:29:56.248Z,85.78
2018-01-15T10:30:56.262Z,85.97
2018-01-15T10:31:56.277Z,85.87
2018-01-15T10:32:56.283Z,85.97
2018-01-15T10:33:56.298Z,86.07
2018-01-15T10:34:56.309Z,86.07
2018-01-15T10:35:56.320Z,85.97
2018-01-15T10:36:56.399Z,86.11
2018-01-15T10:37:56.353Z,85.49
2018-01-15T10:38:56.554Z,85.40
2018-01-15T10:39:56.379Z,85.72
2018-01-15T10:40:56.388Z,85.53
2018-01-15T10:41:56.403Z,85.53
2018-01-15T10:42:56.409Z,86.11
2018-01-15T10:43:56.829Z,85.49
2018-01-15T10:44:56.446Z,85.25
2018-01-15T10:45:56.451Z,85.25
2018-01-15T10:46:56.458Z,85.53
2018-01-15T10:47:56.476Z,85.44
2018-01-15T10:48:56.490Z,85.63
2018-01-15T10:49:56.498Z,85.44
2018-01-15T10:50:56.510Z,85.44
2018-01-15T10:51:56.523Z,85.16
2018-01-15T10:52:56.535Z,85.16
2018-01-15T10:53:56.550Z,85.35
2018-01-15T10:54:56.558Z,84.87
2018-01-15T10:55:56.571Z,84.87
2018-01-15T10:56:56.583Z,84.78
2018-01-15T10:57:56.598Z,84.59
2018-01-15T10:58:56.611Z,84.87
2018-01-15T10:59:56.626Z,84.87
2018-01-15T11:00:56.633Z,84.11
2018-01-15T11:01:56.646Z,83.92
2018-01-15T11:02:56.816Z,83.73
2018-01-15T11:03:56.671Z,83.73
2018-01-15T11:04:56.683Z,84.11
2018-01-15T11:05:56.699Z,83.92
2018-01-15T11:06:56.708Z,83.83
2018-01-15T11:07:56.721Z,83.73
2018-01-15T11:08:56.734Z,83.73
2018-01-15T11:09:56.747Z,83.73
2018-01-15T11:10:56.760Z,83.45
2018-01-15T11:11:56.780Z,82.97
2018-01-15T11:12:56.816Z,83.16
2018-01-15T11:13:56.965Z,83.16
2018-01-15T11:14:56.810Z,83.07
2018-01-15T11:15:56.854Z,83.36
2018-01-15T11:16:56.840Z,82.59
2018-01-15T11:17:56.853Z,82.78
2018-01-15T11:18:56.861Z,82.78
2018-01-15T11:19:56.893Z,82.78
2018-01-15T11:20:56.886Z,82.78
2018-01-15T11:21:57.051Z,82.50
2018-01-15T11:22:56.917Z,82.88
2018-01-15T11:23:56.932Z,82.64
2018-01-15T11:24:56.941Z,82.21
2018-01-15T11:25:56.953Z,82.45
2018-01-15T11:26:56.964Z,81.97
2018-01-15T11:27:56.979Z,82.45
2018-01-15T11:28:56.992Z,82.07
2018-01-15T11:29:57.004Z,82.16
2018-01-15T11:30:57.017Z,81.97
2018-01-15T11:31:57.028Z,82.07
2018-01-15T11:32:57.046Z,82.07
2018-01-15T11:33:57.053Z,81.68
2018-01-15T11:34:57.069Z,81.97
2018-01-15T11:35:57.081Z,81.78
2018-01-15T11:36:57.095Z,81.49
2018-01-15T11:37:57.111Z,81.49
2018-01-15T11:38:57.120Z,81.49
2018-01-15T11:39:57.133Z,81.59
2018-01-15T11:40:57.147Z,81.59
2018-01-15T11:41:57.161Z,81.30
2018-01-15T11:42:57.172Z,81.59
2018-01-15T11:43:57.184Z,81.97
2018-01-15T11:44:57.197Z,82.16
2018-01-15T11:45:57.209Z,82.07
2018-01-15T11:46:57.384Z,81.78
2018-01-15T11:47:57.242Z,81.97
2018-01-15T11:48:57.254Z,82.16
2018-01-15T11:49:57.269Z,81.59
2018-01-15T11:50:57.276Z,82.16
2018-01-15T11:51:57.288Z,81.87
2018-01-15T11:52:57.454Z,81.78
2018-01-15T11:53:57.315Z,81.97
2018-01-15T11:54:57.331Z,81.87
2018-01-15T11:55:57.343Z,81.78
2018-01-15T11:56:57.355Z,81.97
2018-01-15T11:57:57.384Z,81.97
2018-01-15T11:58:57.385Z,81.78
2018-01-15T11:59:57.498Z,82.26
2018-01-15T12:00:57.421Z,82.35
2018-01-15T12:01:57.425Z,82.35
2018-01-15T12:02:57.530Z,82.16
2018-01-15T12:03:57.448Z,81.87
2018-01-15T12:05:57.865Z,81.97
2018-01-15T12:06:57.578Z,81.97
2018-01-15T12:07:57.507Z,81.87
2018-01-15T12:09:58.174Z,81.59
2018-01-15T12:10:57.555Z,82.35
2018-01-15T12:11:57.621Z,81.68
2018-01-15T12:12:57.566Z,81.97
2018-01-15T12:13:57.580Z,81.97
2018-01-15T12:14:57.601Z,82.07
2018-01-15T12:15:57.613Z,82.54
2018-01-15T12:16:57.619Z,82.07
2018-01-15T12:17:57.630Z,82.45
2018-01-15T12:18:57.666Z,82.16
2018-01-15T12:19:57.656Z,82.45
2018-01-15T12:20:57.673Z,82.35
2018-01-15T12:21:57.684Z,82.64
2018-01-15T12:22:57.699Z,83.01
2018-01-15T12:23:57.707Z,82.64
2018-01-15T12:24:57.721Z,82.82
2018-01-15T12:25:57.735Z,82.73
2018-01-15T12:26:57.747Z,82.73
2018-01-15T12:27:57.759Z,82.82
2018-01-15T12:28:57.775Z,82.54
2018-01-15T12:29:57.788Z,82.82
2018-01-15T12:30:57.799Z,82.73
2018-01-15T12:31:57.818Z,82.82
2018-01-15T12:32:57.827Z,82.82
2018-01-15T12:33:57.840Z,82.82
2018-01-15T12:34:57.854Z,82.82
2018-01-15T12:35:57.867Z,82.92
2018-01-15T12:36:57.879Z,83.01
2018-01-15T12:37:58.292Z,82.92
2018-01-15T12:38:57.917Z,82.64
2018-01-15T12:39:57.923Z,82.54
2018-01-15T12:40:58.834Z,83.20
2018-01-15T12:41:57.945Z,83.20
2018-01-15T12:42:57.960Z,83.49
2018-01-15T12:43:57.971Z,83.15
2018-01-15T12:44:57.986Z,83.59
2018-01-15T12:45:57.997Z,83.06
2018-01-15T12:46:58.167Z,83.39
2018-01-15T12:47:58.026Z,83.78
2018-01-15T12:48:58.038Z,83.30
2018-01-15T12:49:58.050Z,83.53
2018-01-15T12:50:58.266Z,83.30
2018-01-15T12:51:58.077Z,83.44
2018-01-15T12:52:58.090Z,83.59
2018-01-15T12:53:58.104Z,83.30
2018-01-15T12:54:58.131Z,83.25
2018-01-15T12:55:58.129Z,83.06
2018-01-15T12:56:58.143Z,83.44
2018-01-15T12:57:58.155Z,83.06
2018-01-15T12:58:58.179Z,83.25